32.9°F
Current conditions from King Hill
Updated every 5 minutes
 
  Thursday April 24, 2014

Station Historical Data
Daily Summary for January 31, 2012 Units:  Metric    English   Both
« Previous Day
Next Day »
Daily Weekly Monthly Yearly Custom
  High: Low: Average:
Temperature: 2.8 °C -9.2 °C -4.4 °C
Dew Point: -2.1 °C -12.2 °C -7.1 °C
Humidity: 89% 70% 82%
Wind Speed: 6.4km/h 0km/h 2.9km/h
Wind Gust: 16.1km/h - -
Wind- - SSE
Pressure: 1022.6 hPa 1010.7 hPa -
Precipitation: 0 mm    
Historical Graphs
 
 
Tabular Data for January 31, 2012
Time Temperature Dew Point Pressure Wind Wind Speed Wind Gust Humidity Daily Rainfall
00:04 -9.2 °C -12.2 °C 1022.6 hPa Calm     79% 0 mm
00:09 -9.2 °C -12.1 °C 1022.6 hPa Calm     79% 0 mm
00:14 -9.2 °C -12 °C 1022.6 hPa Calm     80% 0 mm
00:19 -9.1 °C -11.9 °C 1022.6 hPa Calm     80% 0 mm
00:24 -9 °C -11.8 °C 1022.6 hPa Calm     80% 0 mm
00:29 -9 °C -11.8 °C 1022.6 hPa Calm     80% 0 mm
00:34 -8.9 °C -11.8 °C 1022.6 hPa Calm     80% 0 mm
00:39 -8.9 °C -11.7 °C 1022.2 hPa Calm     80% 0 mm
00:44 -8.8 °C -11.8 °C 1022.2 hPa Calm     79% 0 mm
00:49 -8.8 °C -11.8 °C 1022.2 hPa Calm     79% 0 mm
00:54 -8.8 °C -11.8 °C 1021.9 hPa Calm     79% 0 mm
00:59 -8.8 °C -11.8 °C 1021.9 hPa Calm   1.6 km/h 79% 0 mm
01:04 -8.9 °C -11.9 °C 1021.9 hPa Calm   1.6 km/h 79% 0 mm
01:09 -9.1 °C -12.1 °C 1021.9 hPa Calm     79% 0 mm
01:14 -9.1 °C -12.1 °C 1021.9 hPa Calm     79% 0 mm
01:19 -9.1 °C -12.1 °C 1021.9 hPa Calm   1.6 km/h 79% 0 mm
01:24 -9.1 °C -12.1 °C 1021.9 hPa Calm   1.6 km/h 79% 0 mm
01:29 -9.1 °C -12.1 °C 1021.9 hPa Calm   1.6 km/h 79% 0 mm
01:34 -8.9 °C -11.9 °C 1021.9 hPa Calm   1.6 km/h 79% 0 mm
01:39 -8.9 °C -11.9 °C 1021.6 hPa Calm   1.6 km/h 79% 0 mm
01:44 -8.8 °C -11.8 °C 1021.6 hPa Calm   1.6 km/h 79% 0 mm
01:49 -8.7 °C -11.6 °C 1021.6 hPa WNW 1.6 km/h 6.4 km/h 80% 0 mm
01:54 -8.6 °C -11.6 °C 1021.6 hPa Calm   6.4 km/h 79% 0 mm
01:59 -8.5 °C -11.5 °C 1021.6 hPa Calm   4.8 km/h 79% 0 mm
02:04 -8.5 °C -11.5 °C 1021.6 hPa Calm   1.6 km/h 79% 0 mm
02:09 -8.6 °C -11.6 °C 1021.2 hPa Calm   3.2 km/h 79% 0 mm
02:14 -8.6 °C -11.6 °C 1021.2 hPa Calm   3.2 km/h 79% 0 mm
02:19 -8.7 °C -11.7 °C 1021.2 hPa Calm     79% 0 mm
02:24 -8.7 °C -11.7 °C 1021.2 hPa Calm     79% 0 mm
02:29 -8.7 °C -11.7 °C 1021.2 hPa Calm     79% 0 mm
02:34 -8.7 °C -11.7 °C 1020.9 hPa Calm     79% 0 mm
02:39 -8.8 °C -11.6 °C 1020.9 hPa Calm     80% 0 mm
02:44 -8.7 °C -11.6 °C 1020.9 hPa Calm     80% 0 mm
02:49 -8.7 °C -11.6 °C 1020.9 hPa Calm     80% 0 mm
02:54 -8.7 °C -11.6 °C 1020.9 hPa Calm     80% 0 mm
02:59 -8.7 °C -11.6 °C 1020.9 hPa Calm     80% 0 mm
03:04 -8.7 °C -11.5 °C 1020.5 hPa Calm     80% 0 mm
03:09 -8.7 °C -11.5 °C 1020.5 hPa East 1.6 km/h 4.8 km/h 80% 0 mm
03:14 -8.7 °C -11.5 °C 1020.5 hPa Calm   4.8 km/h 80% 0 mm
03:19 -8.7 °C -11.5 °C 1020.2 hPa Calm   4.8 km/h 80% 0 mm
03:24 -8.7 °C -11.5 °C 1020.2 hPa Calm   4.8 km/h 80% 0 mm
03:29 -8.7 °C -11.6 °C 1020.2 hPa Calm   3.2 km/h 80% 0 mm
03:34 -8.7 °C -11.6 °C 1020.2 hPa Calm   3.2 km/h 80% 0 mm
03:39 -8.7 °C -11.6 °C 1020.2 hPa Calm   1.6 km/h 80% 0 mm
03:44 -8.7 °C -11.6 °C 1020.2 hPa East 1.6 km/h 4.8 km/h 80% 0 mm
03:49 -8.8 °C -11.6 °C 1020.2 hPa Calm   4.8 km/h 80% 0 mm
03:54 -8.8 °C -11.4 °C 1020.2 hPa East 1.6 km/h 4.8 km/h 81% 0 mm
03:59 -8.8 °C -11.4 °C 1020.2 hPa East 1.6 km/h 4.8 km/h 81% 0 mm
04:04 -8.8 °C -11.4 °C 1020.2 hPa Calm   4.8 km/h 81% 0 mm
04:09 -8.7 °C -11.4 °C 1020.2 hPa East 3.2 km/h 4.8 km/h 81% 0 mm
04:14 -8.7 °C -11.4 °C 1020.2 hPa Calm   8 km/h 81% 0 mm
04:19 -8.7 °C -11.4 °C 1020.2 hPa Calm   8 km/h 81% 0 mm
04:24 -8.7 °C -11.4 °C 1020.2 hPa Calm   3.2 km/h 81% 0 mm
04:29 -8.7 °C -11.3 °C 1020.2 hPa Calm   3.2 km/h 81% 0 mm
04:34 -8.7 °C -11.2 °C 1019.9 hPa Calm   4.8 km/h 82% 0 mm
04:40 -8.6 °C -11.1 °C 1020.2 hPa East 1.6 km/h 8 km/h 82% 0 mm
04:49 -8.6 °C -11.1 °C 1019.9 hPa East 3.2 km/h 4.8 km/h 82% 0 mm
04:54 -8.6 °C -11.1 °C 1019.9 hPa ENE 1.6 km/h 4.8 km/h 82% 0 mm
04:59 -8.6 °C -11.1 °C 1020.2 hPa Calm   4.8 km/h 82% 0 mm
05:04 -8.5 °C -11 °C 1020.2 hPa ENE 1.6 km/h 4.8 km/h 82% 0 mm
05:09 -8.5 °C -11 °C 1019.9 hPa Calm   4.8 km/h 82% 0 mm
05:14 -8.4 °C -10.9 °C 1019.9 hPa Calm   3.2 km/h 82% 0 mm
05:19 -8.4 °C -10.9 °C 1019.9 hPa ENE 1.6 km/h 4.8 km/h 82% 0 mm
05:24 -8.4 °C -10.9 °C 1019.9 hPa ENE 1.6 km/h 4.8 km/h 82% 0 mm
05:29 -8.4 °C -10.8 °C 1019.9 hPa ENE 1.6 km/h 6.4 km/h 83% 0 mm
05:34 -8.4 °C -10.8 °C 1019.5 hPa Calm   6.4 km/h 83% 0 mm
05:39 -8.4 °C -10.8 °C 1019.5 hPa ENE 1.6 km/h 4.8 km/h 83% 0 mm
05:44 -8.4 °C -10.8 °C 1019.5 hPa ENE 1.6 km/h 4.8 km/h 83% 0 mm
05:49 -8.4 °C -10.8 °C 1019.5 hPa Calm   8 km/h 83% 0 mm
05:54 -8.4 °C -10.8 °C 1019.5 hPa East 1.6 km/h 8 km/h 83% 0 mm
05:59 -8.4 °C -10.8 °C 1019.2 hPa Calm   4.8 km/h 83% 0 mm
06:04 -8.3 °C -10.7 °C 1019.2 hPa East 3.2 km/h 8 km/h 83% 0 mm
06:09 -8.3 °C -10.7 °C 1019.2 hPa ENE 1.6 km/h 8 km/h 83% 0 mm
06:14 -8.3 °C -10.7 °C 1019.2 hPa Calm   8 km/h 83% 0 mm
06:19 -8.3 °C -10.7 °C 1018.8 hPa East 1.6 km/h 8 km/h 83% 0 mm
06:24 -8.2 °C -10.6 °C 1018.8 hPa Calm   8 km/h 83% 0 mm
06:29 -8.2 °C -10.6 °C 1018.8 hPa Calm   8 km/h 83% 0 mm
06:34 -8.2 °C -10.6 °C 1018.5 hPa Calm   4.8 km/h 83% 0 mm
06:39 -8.1 °C -10.4 °C 1018.8 hPa Calm   8 km/h 83% 0 mm
06:44 -8 °C -10.4 °C 1018.8 hPa Calm   8 km/h 83% 0 mm
06:49 -7.9 °C -10.3 °C 1018.8 hPa Calm   1.6 km/h 83% 0 mm
06:54 -7.9 °C -10.3 °C 1018.8 hPa Calm   4.8 km/h 83% 0 mm
06:59 -7.9 °C -10.3 °C 1018.8 hPa Calm   4.8 km/h 83% 0 mm
07:04 -7.8 °C -10.2 °C 1019.2 hPa Calm   4.8 km/h 83% 0 mm
07:09 -7.8 °C -10.2 °C 1019.2 hPa Calm   4.8 km/h 83% 0 mm
07:14 -7.8 °C -10.2 °C 1019.2 hPa Calm   3.2 km/h 83% 0 mm
07:19 -7.8 °C -10.3 °C 1019.2 hPa Calm   3.2 km/h 82% 0 mm
07:24 -7.7 °C -10.3 °C 1019.2 hPa East 1.6 km/h 4.8 km/h 82% 0 mm
07:30 -7.7 °C -10.2 °C 1019.2 hPa East 1.6 km/h 8 km/h 82% 0 mm
07:39 -7.6 °C -10.1 °C 1019.2 hPa Calm   4.8 km/h 82% 0 mm
07:44 -7.6 °C -10.1 °C 1018.8 hPa Calm   3.2 km/h 82% 0 mm
07:49 -7.5 °C -10.1 °C 1018.8 hPa Calm   3.2 km/h 82% 0 mm
07:54 -7.4 °C -10 °C 1018.8 hPa Calm   1.6 km/h 82% 0 mm
07:59 -7.4 °C -9.9 °C 1018.8 hPa Calm   3.2 km/h 82% 0 mm
08:04 -7.3 °C -9.9 °C 1018.8 hPa Calm   3.2 km/h 82% 0 mm
08:09 -7.2 °C -9.8 °C 1018.5 hPa Calm   3.2 km/h 82% 0 mm
08:14 -7.2 °C -9.8 °C 1018.8 hPa Calm     82% 0 mm
08:19 -7.1 °C -9.7 °C 1018.8 hPa Calm   1.6 km/h 82% 0 mm
08:24 -7.1 °C -9.6 °C 1018.5 hPa Calm   1.6 km/h 82% 0 mm
08:29 -7 °C -9.6 °C 1018.5 hPa Calm   1.6 km/h 82% 0 mm
08:34 -6.9 °C -9.4 °C 1018.8 hPa Calm   1.6 km/h 82% 0 mm
08:39 -6.8 °C -9.4 °C 1018.8 hPa Calm   1.6 km/h 82% 0 mm
08:44 -6.7 °C -9.3 °C 1018.8 hPa Calm   1.6 km/h 82% 0 mm
08:49 -6.7 °C -9.4 °C 1018.8 hPa Calm     81% 0 mm
08:54 -6.5 °C -9.2 °C 1018.5 hPa Calm     81% 0 mm
08:59 -6.4 °C -9.1 °C 1018.5 hPa Calm     81% 0 mm
09:04 -6.2 °C -8.9 °C 1018.5 hPa Calm     81% 0 mm
09:09 -6.1 °C -8.8 °C 1018.5 hPa Calm     81% 0 mm
09:14 -5.8 °C -8.6 °C 1018.5 hPa Calm     81% 0 mm
09:19 -5.7 °C -8.6 °C 1018.5 hPa Calm     80% 0 mm
09:24 -5.4 °C -8.3 °C 1018.5 hPa Calm     80% 0 mm
09:29 -5.3 °C -8.2 °C 1018.5 hPa Calm     80% 0 mm
09:34 -5.1 °C -8.1 °C 1018.5 hPa Calm     79% 0 mm
09:39 -4.9 °C -8.2 °C 1018.2 hPa Calm     78% 0 mm
09:44 -4.8 °C -8 °C 1018.5 hPa Calm     78% 0 mm
09:49 -4.7 °C -8.1 °C 1018.2 hPa Calm   3.2 km/h 77% 0 mm
09:54 -4.6 °C -8.1 °C 1018.2 hPa East 1.6 km/h 4.8 km/h 77% 0 mm
09:59 -4.6 °C -8 °C 1018.2 hPa East 1.6 km/h 4.8 km/h 77% 0 mm
10:04 -4.5 °C -7.9 °C 1018.2 hPa East 1.6 km/h 3.2 km/h 77% 0 mm
10:09 -4.4 °C -7.8 °C 1018.2 hPa East 1.6 km/h 3.2 km/h 77% 0 mm
10:14 -4.3 °C -7.7 °C 1018.2 hPa Calm   3.2 km/h 77% 0 mm
10:19 -4.1 °C -7.6 °C 1018.2 hPa Calm   3.2 km/h 77% 0 mm
10:24 -4 °C -7.4 °C 1018.2 hPa East 1.6 km/h 3.2 km/h 77% 0 mm
10:29 -3.9 °C -7.4 °C 1017.8 hPa Calm   3.2 km/h 77% 0 mm
10:34 -3.8 °C -7.1 °C 1017.8 hPa Calm   1.6 km/h 78% 0 mm
10:39 -3.6 °C -6.9 °C 1017.8 hPa Calm   1.6 km/h 78% 0 mm
10:44 -3.4 °C -6.7 °C 1017.8 hPa East 1.6 km/h 8 km/h 78% 0 mm
10:49 -3.3 °C -6.6 °C 1017.8 hPa Calm   8 km/h 78% 0 mm
10:54 -3.2 °C -6.3 °C 1017.8 hPa SW 1.6 km/h 9.7 km/h 79% 0 mm
10:59 -3.1 °C -6.2 °C 1017.5 hPa Calm   9.7 km/h 79% 0 mm
11:04 -3.2 °C -6.3 °C 1017.5 hPa SE 1.6 km/h 6.4 km/h 79% 0 mm
11:09 -3.3 °C -6.4 °C 1017.5 hPa ESE 1.6 km/h 6.4 km/h 79% 0 mm
11:14 -3.4 °C -6.5 °C 1017.2 hPa Calm   4.8 km/h 79% 0 mm
11:19 -3.3 °C -6.3 °C 1017.2 hPa Calm   3.2 km/h 80% 0 mm
11:24 -3.2 °C -6.1 °C 1017.2 hPa Calm   1.6 km/h 80% 0 mm
11:29 -2.8 °C -5.4 °C 1016.8 hPa SSE 1.6 km/h 8 km/h 82% 0 mm
11:34 -2.6 °C -5.2 °C 1016.8 hPa SSE 1.6 km/h 8 km/h 82% 0 mm
11:39 -2.4 °C -5.1 °C 1016.8 hPa Calm   4.8 km/h 82% 0 mm
11:44 -2.5 °C -5.3 °C 1016.5 hPa Calm   3.2 km/h 81% 0 mm
11:49 -2.6 °C -5.6 °C 1016.5 hPa Calm   3.2 km/h 80% 0 mm
11:54 -2.4 °C -5.3 °C 1016.5 hPa Calm   3.2 km/h 81% 0 mm
11:59 -2.2 °C -5.1 °C 1016.5 hPa Calm   1.6 km/h 81% 0 mm
12:04 -1.8 °C -4.5 °C 1016.1 hPa SSE 1.6 km/h 4.8 km/h 82% 0 mm
12:09 -1.7 °C -4.6 °C 1016.1 hPa SSE 3.2 km/h 8 km/h 81% 0 mm
12:14 -1.9 °C -4.9 °C 1016.1 hPa SSE 3.2 km/h 8 km/h 80% 0 mm
12:19 -2.1 °C -5.1 °C 1015.8 hPa SSE 1.6 km/h 8 km/h 80% 0 mm
12:24 -2.2 °C -5.1 °C 1015.8 hPa SSE 1.6 km/h 4.8 km/h 81% 0 mm
12:29 -2.4 °C -5.3 °C 1015.8 hPa SSE 3.2 km/h 4.8 km/h 81% 0 mm
12:34 -2.5 °C -5.2 °C 1015.8 hPa Calm   4.8 km/h 82% 0 mm
12:39 -2.4 °C -5.1 °C 1015.8 hPa Calm   4.8 km/h 82% 0 mm
12:44 -2.3 °C -4.9 °C 1015.8 hPa Calm   3.2 km/h 82% 0 mm
12:49 -2.2 °C -4.7 °C 1015.5 hPa Calm   3.2 km/h 83% 0 mm
12:54 -2.2 °C -4.9 °C 1015.5 hPa Calm   3.2 km/h 82% 0 mm
12:59 -2.3 °C -4.9 °C 1015.5 hPa SSE 1.6 km/h 4.8 km/h 82% 0 mm
13:04 -2.4 °C -5.1 °C 1015.1 hPa SSE 1.6 km/h 4.8 km/h 82% 0 mm
13:09 -2.6 °C -5.2 °C 1015.1 hPa SSE 1.6 km/h 4.8 km/h 82% 0 mm
13:14 -2.6 °C -5.1 °C 1015.1 hPa Calm   4.8 km/h 83% 0 mm
13:19 -2.7 °C -5.2 °C 1015.1 hPa Calm   4.8 km/h 83% 0 mm
13:29 -2.7 °C -5 °C 1014.8 hPa Calm   4.8 km/h 84% 0 mm
13:34 -2.6 °C -4.9 °C 1014.8 hPa SSE 1.6 km/h 4.8 km/h 84% 0 mm
13:40 -2.5 °C -4.8 °C 1014.8 hPa Calm   6.4 km/h 84% 0 mm
13:49 -2.6 °C -4.9 °C 1014.8 hPa Calm   4.8 km/h 84% 0 mm
13:54 -2.6 °C -4.7 °C 1014.8 hPa SSE 1.6 km/h 4.8 km/h 85% 0 mm
13:59 -2.7 °C -4.8 °C 1014.8 hPa SSE 1.6 km/h 4.8 km/h 85% 0 mm
14:04 -2.7 °C -4.9 °C 1014.8 hPa SSE 1.6 km/h 4.8 km/h 85% 0 mm
14:09 -2.7 °C -4.9 °C 1014.8 hPa Calm   4.8 km/h 85% 0 mm
14:14 -2.8 °C -4.9 °C 1014.8 hPa SSE 3.2 km/h 6.4 km/h 85% 0 mm
14:19 -2.8 °C -4.9 °C 1014.8 hPa SSE 1.6 km/h 6.4 km/h 85% 0 mm
14:24 -2.8 °C -4.8 °C 1014.8 hPa SSE 1.6 km/h 6.4 km/h 86% 0 mm
14:29 -2.8 °C -4.8 °C 1014.8 hPa Calm   6.4 km/h 86% 0 mm
14:34 -2.7 °C -4.7 °C 1014.8 hPa SSE 1.6 km/h 6.4 km/h 86% 0 mm
14:39 -2.8 °C -4.8 °C 1014.8 hPa SSE 1.6 km/h 4.8 km/h 86% 0 mm
14:44 -2.8 °C -4.8 °C 1014.8 hPa SSE 3.2 km/h 4.8 km/h 86% 0 mm
14:49 -2.8 °C -4.8 °C 1014.8 hPa SSE 3.2 km/h 8 km/h 86% 0 mm
14:54 -2.8 °C -4.8 °C 1014.8 hPa SSE 1.6 km/h 8 km/h 86% 0 mm
14:59 -2.8 °C -4.8 °C 1014.8 hPa SSE 3.2 km/h 6.4 km/h 86% 0 mm
15:04 -2.8 °C -4.8 °C 1014.8 hPa SSE 3.2 km/h 8 km/h 86% 0 mm
15:09 -2.9 °C -4.9 °C 1014.8 hPa SSE 1.6 km/h 8 km/h 86% 0 mm
15:14 -2.9 °C -4.7 °C 1014.8 hPa SSE 3.2 km/h 6.4 km/h 87% 0 mm
15:19 -2.8 °C -4.7 °C 1014.8 hPa SSE 1.6 km/h 6.4 km/h 87% 0 mm
15:24 -2.8 °C -4.7 °C 1014.8 hPa SSE 1.6 km/h 6.4 km/h 87% 0 mm
15:29 -2.8 °C -4.7 °C 1014.8 hPa SSE 1.6 km/h 6.4 km/h 87% 0 mm
15:34 -2.8 °C -4.7 °C 1014.8 hPa SSE 3.2 km/h 6.4 km/h 87% 0 mm
15:39 -2.9 °C -4.7 °C 1014.8 hPa SSE 1.6 km/h 6.4 km/h 87% 0 mm
15:45 -2.9 °C -4.7 °C 1014.8 hPa SSE 1.6 km/h 6.4 km/h 87% 0 mm
15:54 -2.9 °C -4.8 °C 1014.8 hPa SSE 1.6 km/h 8 km/h 87% 0 mm
15:59 -2.9 °C -4.8 °C 1014.8 hPa SSE 1.6 km/h 4.8 km/h 87% 0 mm
16:04 -2.9 °C -4.7 °C 1014.8 hPa Calm   3.2 km/h 87% 0 mm
16:09 -2.9 °C -4.8 °C 1014.4 hPa SSE 3.2 km/h 8 km/h 87% 0 mm
16:14 -2.9 °C -4.8 °C 1014.4 hPa SSE 3.2 km/h 9.7 km/h 87% 0 mm
16:19 -2.9 °C -4.7 °C 1014.8 hPa SSE 3.2 km/h 9.7 km/h 88% 0 mm
16:24 -2.9 °C -4.8 °C 1014.4 hPa SSE 3.2 km/h 6.4 km/h 87% 0 mm
16:29 -2.9 °C -4.8 °C 1014.4 hPa Calm   9.7 km/h 87% 0 mm
16:34 -2.9 °C -4.7 °C 1014.4 hPa East 3.2 km/h 9.7 km/h 88% 0 mm
16:39 -2.9 °C -4.7 °C 1014.4 hPa ENE 3.2 km/h 8 km/h 88% 0 mm
17:24 -2.8 °C -4.4 °C 1014.1 hPa Calm   1.6 km/h 89% 0 mm
17:29 -2.8 °C -4.3 °C 1014.1 hPa Calm   1.6 km/h 89% 0 mm
17:34 -2.8 °C -4.3 °C 1014.1 hPa Calm     89% 0 mm
17:39 -2.8 °C -4.3 °C 1014.4 hPa ENE 1.6 km/h 3.2 km/h 89% 0 mm
17:44 -2.7 °C -4.3 °C 1014.1 hPa Calm   3.2 km/h 89% 0 mm
17:49 -2.7 °C -4.3 °C 1014.1 hPa Calm     89% 0 mm
17:54 -2.7 °C -4.4 °C 1014.1 hPa Calm     88% 0 mm
17:59 -2.7 °C -4.4 °C 1014.1 hPa Calm     88% 0 mm
18:04 -2.6 °C -4.3 °C 1014.1 hPa ENE 1.6 km/h 1.6 km/h 88% 0 mm
18:09 -2.6 °C -4.3 °C 1014.1 hPa Calm   1.6 km/h 88% 0 mm
18:14 -2.6 °C -4.3 °C 1014.1 hPa Calm   1.6 km/h 88% 0 mm
18:19 -2.6 °C -4.3 °C 1014.1 hPa Calm   1.6 km/h 88% 0 mm
18:24 -2.6 °C -4.3 °C 1014.1 hPa Calm     88% 0 mm
18:30 -2.5 °C -4.2 °C 1014.4 hPa Calm   1.6 km/h 88% 0 mm
18:35 -2.5 °C -4.2 °C 1014.1 hPa ENE 1.6 km/h 3.2 km/h 88% 0 mm
18:44 -2.4 °C -4.2 °C 1014.1 hPa Calm   3.2 km/h 88% 0 mm
18:49 -2.4 °C -4.2 °C 1013.8 hPa Calm     88% 0 mm
18:54 -2.4 °C -4.1 °C 1013.8 hPa Calm     88% 0 mm
18:59 -2.3 °C -4.1 °C 1014.1 hPa Calm     88% 0 mm
19:04 -2.3 °C -4.1 °C 1014.1 hPa Calm   1.6 km/h 88% 0 mm
19:09 -2.3 °C -4 °C 1013.8 hPa Calm   1.6 km/h 88% 0 mm
19:19 -2.2 °C -3.9 °C 1013.8 hPa Calm     88% 0 mm
19:24 -2.2 °C -3.9 °C 1013.8 hPa Calm     88% 0 mm
19:35 -2.1 °C -3.8 °C 1013.8 hPa Calm     88% 0 mm
19:44 -2.1 °C -3.8 °C 1013.4 hPa Calm     88% 0 mm
19:49 -2 °C -3.7 °C 1013.4 hPa Calm     88% 0 mm
19:54 -2 °C -3.7 °C 1013.4 hPa Calm     88% 0 mm
19:59 -1.9 °C -3.7 °C 1013.4 hPa Calm     88% 0 mm
20:04 -1.9 °C -3.8 °C 1013.4 hPa Calm     87% 0 mm
20:09 -1.8 °C -3.7 °C 1013.4 hPa Calm     87% 0 mm
20:14 -1.8 °C -3.5 °C 1013.4 hPa Calm     88% 0 mm
20:19 -1.7 °C -3.4 °C 1013.4 hPa Calm     88% 0 mm
20:24 -1.7 °C -3.4 °C 1013.4 hPa Calm     88% 0 mm
20:29 -1.6 °C -3.3 °C 1013.1 hPa ENE 1.6 km/h 4.8 km/h 88% 0 mm
20:34 -1.4 °C -3.2 °C 1013.1 hPa SSW 1.6 km/h 8 km/h 88% 0 mm
20:39 -0.9 °C -2.8 °C 1013.1 hPa SSW 3.2 km/h 9.7 km/h 87% 0 mm
20:44 -0.3 °C -2.7 °C 1013.1 hPa SSW 3.2 km/h 12.9 km/h 84% 0 mm
20:49 0.1 °C -2.6 °C 1013.1 hPa SSW 3.2 km/h 12.9 km/h 82% 0 mm
20:54 0.3 °C -2.7 °C 1012.8 hPa SSW 4.8 km/h 9.7 km/h 80% 0 mm
20:59 0.5 °C -2.7 °C 1013.1 hPa SSW 3.2 km/h 11.3 km/h 79% 0 mm
21:04 0.6 °C -2.8 °C 1013.1 hPa SSW 4.8 km/h 11.3 km/h 78% 0 mm
21:09 0.6 °C -2.8 °C 1012.8 hPa SSW 3.2 km/h 9.7 km/h 78% 0 mm
21:14 0.7 °C -2.7 °C 1012.8 hPa SSW 4.8 km/h 11.3 km/h 78% 0 mm
21:19 0.8 °C -2.7 °C 1012.4 hPa SSW 6.4 km/h 11.3 km/h 77% 0 mm
21:24 1 °C -2.6 °C 1012.4 hPa SSW 6.4 km/h 11.3 km/h 77% 0 mm
21:29 1.1 °C -2.7 °C 1012.4 hPa SSW 4.8 km/h 11.3 km/h 76% 0 mm
21:35 1.2 °C -2.6 °C 1012.4 hPa SSW 4.8 km/h 9.7 km/h 76% 0 mm
21:44 1.3 °C -2.6 °C 1012.4 hPa SSW 4.8 km/h 11.3 km/h 75% 0 mm
21:49 1.2 °C -2.7 °C 1012.1 hPa Calm   11.3 km/h 75% 0 mm
21:54 1.2 °C -2.7 °C 1012.1 hPa SSW 3.2 km/h 8 km/h 75% 0 mm
21:59 1.2 °C -2.6 °C 1012.1 hPa SSW 1.6 km/h 6.4 km/h 76% 0 mm
22:04 1.3 °C -2.5 °C 1012.1 hPa SSW 3.2 km/h 8 km/h 76% 0 mm
22:09 1.3 °C -2.6 °C 1011.7 hPa SSW 3.2 km/h 8 km/h 75% 0 mm
22:14 1.4 °C -2.5 °C 1011.7 hPa SSW 3.2 km/h 8 km/h 75% 0 mm
22:19 1.7 °C -2.4 °C 1011.7 hPa SSW 6.4 km/h 11.3 km/h 74% 0 mm
22:24 1.8 °C -2.5 °C 1011.7 hPa SSW 3.2 km/h 11.3 km/h 73% 0 mm
22:29 1.9 °C -2.4 °C 1011.7 hPa SSW 4.8 km/h 9.7 km/h 73% 0 mm
22:34 1.9 °C -2.4 °C 1011.7 hPa SSW 4.8 km/h 11.3 km/h 73% 0 mm
22:39 1.9 °C -2.6 °C 1011.4 hPa SSW 4.8 km/h 11.3 km/h 72% 0 mm
22:49 2.1 °C -2.4 °C 1011.4 hPa SSW 4.8 km/h 16.1 km/h 72% 0 mm
22:54 2.1 °C -2.6 °C 1011.4 hPa South 6.4 km/h 16.1 km/h 71% 0 mm
22:59 2.1 °C -2.6 °C 1011.4 hPa SSW 6.4 km/h 14.5 km/h 71% 0 mm
23:04 2.1 °C -2.4 °C 1011.4 hPa SSW 4.8 km/h 11.3 km/h 72% 0 mm
23:09 2.1 °C -2.4 °C 1011.1 hPa SSW 6.4 km/h 11.3 km/h 72% 0 mm
23:14 2.1 °C -2.4 °C 1011.1 hPa SSW 6.4 km/h 14.5 km/h 72% 0 mm
23:19 2.2 °C -2.6 °C 1011.1 hPa SSW 6.4 km/h 14.5 km/h 71% 0 mm
23:24 2.1 °C -2.4 °C 1011.1 hPa SSW 6.4 km/h 11.3 km/h 72% 0 mm
23:29 2.1 °C -2.4 °C 1010.7 hPa SSW 6.4 km/h 11.3 km/h 72% 0 mm
23:34 2.2 °C -2.3 °C 1010.7 hPa SSW 6.4 km/h 11.3 km/h 72% 0 mm
23:39 2.2 °C -2.3 °C 1010.7 hPa SSW 4.8 km/h 11.3 km/h 72% 0 mm
23:44 2.3 °C -2.2 °C 1010.7 hPa SSW 3.2 km/h 9.7 km/h 72% 0 mm
23:49 2.3 °C -2.4 °C 1010.7 hPa SSW 3.2 km/h 9.7 km/h 71% 0 mm
23:54 2.6 °C -2.2 °C 1010.7 hPa SSW 3.2 km/h 9.7 km/h 71% 0 mm
23:59 2.8 °C -2.1 °C 1010.7 hPa SSW 4.8 km/h 9.7 km/h 70% 0 mm
Westford Weather
Compliments of Weather Underground

 
 
Current Radar Loop:

Copyright © WestfordWeather.net 2007-2014. All rights reserved.